Time;durP1;ratioP1;P1;durP2;ratioP2;P2;SDS_P1;SDS_P2;PMS_P1;PMS_P2;Temp;Humidity;BMP_temperature;BMP_pressure;BME280_temperature;BME280_humidity;BME280_pressure;Samples;Min_cycle;Max_cycle;Signal;HPM_P1;HPM_P2
2022/07/01 00:00:36;;;;;;;7.35;1.80;;;15.80;99.90;;;;;;5053395;28;20112;-75
2022/07/01 00:03:02;;;;;;;2.80;1.23;;;15.90;99.90;;;;;;5054197;28;20116;-76
2022/07/01 00:05:27;;;;;;;5.40;1.30;;;15.90;99.90;;;;;;5050377;28;20037;-75
2022/07/01 00:07:53;;;;;;;4.78;1.33;;;15.90;99.90;;;;;;5043158;28;20120;-75
2022/07/01 00:10:19;;;;;;;4.93;1.35;;;15.80;99.90;;;;;;5040041;28;20045;-75
2022/07/01 00:12:46;;;;;;;5.15;1.40;;;15.90;99.90;;;;;;5051140;28;20052;-75
2022/07/01 00:15:12;;;;;;;4.47;1.25;;;15.90;99.90;;;;;;5036008;28;20047;-75
2022/07/01 00:17:38;;;;;;;7.72;1.65;;;15.70;99.90;;;;;;5053680;28;20544;-75
2022/07/01 00:20:04;;;;;;;5.00;1.50;;;15.70;99.90;;;;;;5052846;28;20033;-74
2022/07/01 00:22:30;;;;;;;3.92;1.88;;;15.80;99.90;;;;;;5052978;28;20372;-75
2022/07/01 00:24:55;;;;;;;5.30;1.35;;;15.80;99.90;;;;;;5069140;28;20094;-75
2022/07/01 00:27:22;;;;;;;4.38;1.23;;;15.70;99.90;;;;;;5037301;28;20045;-76
2022/07/01 00:29:47;;;;;;;3.70;1.38;;;15.70;99.90;;;;;;5052890;28;20077;-77
2022/07/01 00:32:13;;;;;;;4.95;1.30;;;15.70;99.90;;;;;;5053581;28;20084;-76
2022/07/01 00:34:39;;;;;;;6.18;1.63;;;15.70;99.90;;;;;;5053013;28;20382;-76
2022/07/01 00:37:05;;;;;;;3.20;1.30;;;15.70;99.90;;;;;;5053647;28;20037;-77
2022/07/01 00:39:35;;;;;;;4.55;1.40;;;15.60;99.90;;;;;;5036980;28;20037;-76
2022/07/01 00:42:03;;;;;;;3.25;1.10;;;15.60;99.90;;;;;;5052964;28;20037;-77
2022/07/01 00:44:29;;;;;;;4.40;1.20;;;15.60;99.90;;;;;;5051491;28;20041;-75
2022/07/01 00:46:55;;;;;;;5.55;1.25;;;15.60;99.90;;;;;;5066186;28;20041;-75
2022/07/01 00:49:22;;;;;;;3.38;1.13;;;15.60;99.90;;;;;;5050153;28;20095;-76
2022/07/01 00:51:47;;;;;;;4.47;1.20;;;15.60;99.90;;;;;;5065644;28;20044;-75
2022/07/01 00:54:13;;;;;;;3.85;1.00;;;15.60;99.90;;;;;;5050009;28;20128;-74
2022/07/01 00:56:39;;;;;;;4.47;1.13;;;15.60;99.90;;;;;;5049982;28;20041;-75
2022/07/01 00:59:05;;;;;;;4.18;1.23;;;15.70;99.90;;;;;;5033127;28;20453;-76
2022/07/01 01:01:30;;;;;;;3.65;1.20;;;15.80;99.90;;;;;;5062810;28;20045;-75
2022/07/01 01:03:56;;;;;;;4.53;1.30;;;16.00;99.90;;;;;;5053188;28;20156;-75
2022/07/01 01:06:22;;;;;;;4.97;1.10;;;16.00;99.90;;;;;;5052231;28;20045;-75
2022/07/01 01:08:48;;;;;;;3.53;1.00;;;16.10;99.90;;;;;;5053015;28;20048;-74
2022/07/01 01:11:15;;;;;;;3.60;0.95;;;15.90;99.90;;;;;;5052027;28;20073;-74
2022/07/01 01:13:41;;;;;;;3.90;1.25;;;15.70;99.90;;;;;;5069530;28;20492;-74
2022/07/01 01:16:07;;;;;;;5.07;1.20;;;15.60;99.90;;;;;;5052359;28;20109;-75
2022/07/01 01:18:33;;;;;;;3.55;0.80;;;15.50;99.90;;;;;;5051711;28;20028;-75
2022/07/01 01:20:59;;;;;;;1.40;0.88;;;15.50;99.90;;;;;;5053079;28;20179;-75
2022/07/01 01:23:25;;;;;;;1.88;0.90;;;15.50;99.90;;;;;;5052699;28;20545;-75
2022/07/01 01:25:50;;;;;;;4.30;1.25;;;15.60;99.90;;;;;;5051410;28;20037;-77
2022/07/01 01:28:16;;;;;;;2.08;0.80;;;15.70;99.90;;;;;;5052666;28;20174;-76
2022/07/01 01:30:42;;;;;;;1.33;0.88;;;15.80;99.90;;;;;;5068540;28;20037;-75
2022/07/01 01:33:08;;;;;;;3.35;0.80;;;15.80;99.90;;;;;;5052556;28;20049;-75
2022/07/01 01:35:34;;;;;;;3.78;1.00;;;15.70;99.90;;;;;;5050855;28;20151;-75
2022/07/01 01:38:00;;;;;;;2.38;0.95;;;15.70;99.90;;;;;;5052537;28;20523;-75
2022/07/01 01:40:26;;;;;;;2.67;1.00;;;15.70;99.90;;;;;;5036025;28;20040;-75
2022/07/01 01:42:52;;;;;;;2.38;0.90;;;15.70;99.90;;;;;;5035255;28;20044;-75
2022/07/01 01:45:18;;;;;;;2.30;1.00;;;15.70;99.90;;;;;;5050978;28;20059;-75
2022/07/01 01:47:44;;;;;;;1.90;0.80;;;15.70;99.90;;;;;;5034734;28;20095;-75
2022/07/01 01:50:12;;;;;;;3.55;1.00;;;15.80;99.90;;;;;;5035777;28;20037;-75
2022/07/01 01:52:38;;;;;;;2.70;1.00;;;15.80;99.90;;;;;;5052835;28;20042;-75
2022/07/01 01:55:05;;;;;;;2.80;1.00;;;15.80;99.90;;;;;;5043095;28;20507;-75
2022/07/01 01:57:30;;;;;;;1.15;0.90;;;15.80;99.90;;;;;;5035520;28;20040;-74
2022/07/01 01:59:56;;;;;;;2.80;0.90;;;15.80;99.90;;;;;;5035083;28;20432;-74
2022/07/01 02:02:21;;;;;;;3.78;0.90;;;15.80;99.90;;;;;;5052005;28;20048;-75
2022/07/01 02:04:48;;;;;;;3.25;0.90;;;15.80;99.90;;;;;;5068737;28;20040;-75
2022/07/01 02:07:14;;;;;;;1.25;0.82;;;15.90;99.90;;;;;;5051625;28;20045;-74
2022/07/01 02:09:39;;;;;;;3.08;1.00;;;15.90;99.90;;;;;;5068750;28;20549;-75
2022/07/01 02:12:05;;;;;;;1.77;1.15;;;16.00;99.90;;;;;;5051873;28;20065;-75
2022/07/01 02:14:31;;;;;;;2.20;0.77;;;16.00;99.90;;;;;;5052260;28;20508;-75
2022/07/01 02:16:56;;;;;;;3.70;1.00;;;16.00;99.90;;;;;;5049626;28;20043;-75
2022/07/01 02:19:22;;;;;;;1.42;0.80;;;16.00;99.90;;;;;;5051180;28;20595;-75
2022/07/01 02:21:47;;;;;;;2.70;0.93;;;16.00;99.90;;;;;;5034707;28;20037;-75
2022/07/01 02:24:13;;;;;;;2.72;1.00;;;16.10;99.90;;;;;;5051810;28;20501;-75
2022/07/01 02:26:38;;;;;;;2.42;0.90;;;16.10;99.90;;;;;;5051224;28;20120;-74
2022/07/01 02:29:04;;;;;;;4.70;1.23;;;16.00;99.90;;;;;;5052059;28;20086;-75
2022/07/01 02:31:30;;;;;;;2.08;1.00;;;16.00;99.90;;;;;;5051864;28;20041;-75
2022/07/01 02:33:55;;;;;;;2.80;0.98;;;15.90;99.90;;;;;;5035087;28;20468;-75
2022/07/01 02:36:21;;;;;;;2.63;1.15;;;15.90;99.90;;;;;;5027303;28;20045;-76
2022/07/01 02:38:46;;;;;;;2.50;1.02;;;15.90;99.90;;;;;;5067589;28;20128;-76
2022/07/01 02:41:12;;;;;;;3.13;1.20;;;15.80;99.90;;;;;;5032325;28;20049;-77
2022/07/01 02:43:38;;;;;;;2.38;1.23;;;15.70;99.90;;;;;;5015230;28;20045;-76
2022/07/01 02:46:03;;;;;;;2.35;1.40;;;15.60;99.90;;;;;;5054435;28;20040;-76
2022/07/01 02:48:29;;;;;;;2.42;1.15;;;15.50;99.90;;;;;;5035245;28;20048;-77
2022/07/01 02:50:55;;;;;;;2.47;1.13;;;15.50;99.90;;;;;;5034887;28;20033;-77
2022/07/01 02:53:21;;;;;;;4.32;1.50;;;15.60;99.90;;;;;;5050745;28;20401;-76
2022/07/01 02:55:46;;;;;;;3.25;1.60;;;15.60;99.90;;;;;;5050951;28;20394;-76
2022/07/01 02:58:12;;;;;;;2.13;1.35;;;15.60;99.90;;;;;;5035235;28;20182;-77
2022/07/01 03:00:38;;;;;;;2.45;1.30;;;15.60;99.90;;;;;;5034297;28;20486;-76
2022/07/01 03:03:03;;;;;;;4.70;1.60;;;15.50;99.90;;;;;;5051698;28;20401;-76
2022/07/01 03:05:29;;;;;;;4.03;1.60;;;15.50;99.90;;;;;;5050868;28;20037;-76
2022/07/01 03:07:54;;;;;;;3.75;1.60;;;15.50;99.90;;;;;;5050862;28;20045;-76
2022/07/01 03:10:20;;;;;;;4.07;1.58;;;15.60;99.90;;;;;;5051113;28;20060;-77
2022/07/01 03:12:46;;;;;;;2.47;1.55;;;15.70;99.90;;;;;;5038111;28;20045;-76
2022/07/01 03:15:14;;;;;;;2.55;1.35;;;15.70;99.90;;;;;;5054404;28;20500;-77
2022/07/01 03:17:42;;;;;;;2.60;1.50;;;15.70;99.90;;;;;;5055158;28;20095;-77
2022/07/01 03:20:10;;;;;;;5.00;2.05;;;15.70;99.90;;;;;;5037539;28;20036;-77
2022/07/01 03:22:36;;;;;;;3.63;1.60;;;15.70;99.90;;;;;;5055063;28;20095;-77
2022/07/01 03:25:03;;;;;;;4.65;2.08;;;15.80;99.90;;;;;;5037369;28;20037;-76
2022/07/01 03:27:29;;;;;;;4.60;2.10;;;15.90;99.90;;;;;;5038048;28;20396;-76
2022/07/01 03:29:55;;;;;;;3.80;1.92;;;16.00;99.90;;;;;;5055004;28;20036;-76
2022/07/01 03:32:21;;;;;;;4.53;1.98;;;15.90;99.90;;;;;;5055170;28;20086;-76
2022/07/01 03:34:49;;;;;;;6.32;2.13;;;16.00;99.90;;;;;;5053377;28;20045;-76
2022/07/01 03:37:15;;;;;;;4.78;1.90;;;15.90;99.90;;;;;;5054803;28;20036;-76
2022/07/01 03:39:42;;;;;;;4.18;2.30;;;16.00;99.90;;;;;;5037706;28;20440;-76
2022/07/01 03:42:08;;;;;;;5.05;2.38;;;16.00;99.90;;;;;;5055016;28;20112;-76
2022/07/01 03:44:34;;;;;;;7.85;2.17;;;16.10;99.90;;;;;;5052906;28;20033;-76
2022/07/01 03:47:00;;;;;;;4.53;2.15;;;16.10;99.90;;;;;;5036619;28;20496;-76
2022/07/01 03:49:26;;;;;;;4.88;2.03;;;16.00;99.90;;;;;;5054607;28;20070;-76
2022/07/01 03:51:52;;;;;;;5.05;2.50;;;15.90;99.90;;;;;;5053836;28;20122;-76
2022/07/01 03:54:30;;;;;;;4.68;2.10;;;15.90;99.90;;;;;;5054318;28;20045;-76
2022/07/01 03:57:07;;;;;;;5.78;2.30;;;16.00;99.90;;;;;;5053907;28;20110;-76
2022/07/01 03:59:38;;;;;;;7.05;2.67;;;16.00;99.90;;;;;;5054791;28;20394;-76
2022/07/01 04:02:05;;;;;;;5.18;2.60;;;16.00;99.90;;;;;;5053766;28;20041;-75
2022/07/01 04:04:30;;;;;;;4.90;2.63;;;16.00;99.90;;;;;;5054231;28;20041;-75
2022/07/01 04:07:02;;;;;;;6.45;2.67;;;16.00;99.90;;;;;;5035931;28;20181;-76
2022/07/01 04:09:29;;;;;;;5.40;2.60;;;15.90;99.90;;;;;;5034310;28;20557;-75
2022/07/01 04:11:55;;;;;;;8.23;3.17;;;15.90;99.90;;;;;;5050071;28;20061;-75
2022/07/01 04:14:21;;;;;;;7.00;3.80;;;16.00;99.90;;;;;;5037384;28;20044;-75
2022/07/01 04:16:47;;;;;;;6.68;3.78;;;15.90;99.90;;;;;;5052340;28;20045;-75
2022/07/01 04:19:17;;;;;;;7.93;4.68;;;16.00;99.90;;;;;;5054107;28;20091;-75
2022/07/01 04:24:28;;;;;;;8.73;5.18;;;16.00;99.90;;;;;;5053058;28;20061;-76
2022/07/01 04:26:54;;;;;;;10.25;5.60;;;16.00;99.90;;;;;;5036525;28;20123;-75
2022/07/01 04:29:20;;;;;;;8.85;5.82;;;16.10;99.90;;;;;;5053742;28;20446;-75
2022/07/01 04:31:46;;;;;;;9.88;6.72;;;16.00;99.90;;;;;;5036880;28;20118;-76
2022/07/01 04:34:11;;;;;;;11.95;7.75;;;16.00;99.90;;;;;;5053606;28;20040;-75
2022/07/01 04:36:38;;;;;;;10.88;7.18;;;16.00;99.90;;;;;;5053177;28;20393;-75
2022/07/01 04:39:04;;;;;;;11.30;7.82;;;15.90;99.90;;;;;;5053615;28;20052;-75
2022/07/01 04:44:15;;;;;;;12.85;8.65;;;16.00;99.90;;;;;;5051856;28;20044;-75
2022/07/01 04:46:40;;;;;;;12.82;9.13;;;16.00;99.90;;;;;;5052988;28;20406;-76
2022/07/01 04:49:07;;;;;;;12.63;8.88;;;15.90;99.90;;;;;;5052716;28;20063;-76
2022/07/01 04:51:34;;;;;;;12.60;9.85;;;15.90;99.90;;;;;;5052870;28;20136;-76
2022/07/01 04:54:04;;;;;;;14.70;11.02;;;15.90;99.90;;;;;;5051744;28;20044;-77
2022/07/01 04:56:30;;;;;;;14.60;10.60;;;16.00;99.90;;;;;;5053526;28;20125;-75
2022/07/01 04:58:56;;;;;;;15.60;11.30;;;16.00;99.90;;;;;;5053271;28;20040;-76
2022/07/01 05:01:22;;;;;;;17.15;13.02;;;15.90;99.90;;;;;;5035843;28;20037;-77
2022/07/01 05:03:48;;;;;;;18.17;12.90;;;16.00;99.90;;;;;;5036741;28;20033;-77
2022/07/01 05:06:14;;;;;;;17.35;12.98;;;16.00;99.90;;;;;;5052324;28;20036;-77
2022/07/01 05:08:40;;;;;;;18.55;13.63;;;16.00;99.90;;;;;;5053091;28;20439;-76
2022/07/01 05:11:06;;;;;;;18.33;13.93;;;15.90;99.90;;;;;;5035826;28;20090;-76
2022/07/01 05:13:33;;;;;;;18.92;14.75;;;15.90;99.90;;;;;;5036369;28;20049;-76
2022/07/01 05:15:59;;;;;;;22.08;14.32;;;15.90;99.90;;;;;;5033921;28;20037;-76
2022/07/01 05:23:52;;;;;;;22.58;16.45;;;15.90;99.90;;;;;;5052855;28;20049;-76
2022/07/01 05:26:18;;;;;;;21.23;16.45;;;15.90;99.90;;;;;;5035469;28;20045;-77
2022/07/01 05:28:47;;;;;;;21.95;17.05;;;15.80;99.90;;;;;;5052670;28;20072;-77
2022/07/01 05:31:13;;;;;;;23.75;18.60;;;15.90;99.90;;;;;;5052303;28;20041;-77
2022/07/01 05:33:39;;;;;;;22.00;17.85;;;15.90;99.90;;;;;;5035240;28;20519;-77
2022/07/01 05:36:05;;;;;;;22.42;17.08;;;16.00;99.90;;;;;;5035420;28;20210;-76
2022/07/01 05:38:30;;;;;;;24.17;18.73;;;16.00;99.90;;;;;;5052017;28;20115;-76
2022/07/01 05:40:56;;;;;;;23.58;19.17;;;15.90;99.90;;;;;;5052872;28;20504;-76
2022/07/01 05:43:21;;;;;;;22.92;18.35;;;16.00;99.90;;;;;;5052503;28;20171;-77
2022/07/01 05:45:47;;;;;;;22.90;18.83;;;15.90;99.90;;;;;;5045616;28;20045;-77
2022/07/01 05:48:13;;;;;;;23.85;19.10;;;16.00;99.90;;;;;;5051556;28;20033;-77
2022/07/01 05:50:43;;;;;;;24.13;20.27;;;16.10;99.90;;;;;;5035718;28;20120;-76
2022/07/01 05:53:09;;;;;;;24.45;18.42;;;15.90;99.90;;;;;;5052356;28;20413;-76
2022/07/01 05:55:34;;;;;;;26.35;19.75;;;16.00;99.90;;;;;;5049128;28;20041;-77
2022/07/01 05:58:01;;;;;;;24.27;19.25;;;15.90;99.90;;;;;;5050978;28;20102;-77
2022/07/01 06:00:27;;;;;;;24.15;19.90;;;16.00;99.90;;;;;;5037678;28;20533;-76
2022/07/01 06:02:53;;;;;;;24.85;19.15;;;16.10;99.90;;;;;;5029053;28;20068;-77
2022/07/01 06:05:18;;;;;;;25.90;20.85;;;16.00;99.90;;;;;;5050645;28;20068;-77
2022/07/01 06:07:44;;;;;;;24.85;19.98;;;16.10;99.90;;;;;;5047830;28;20499;-77
2022/07/01 06:10:10;;;;;;;25.50;20.38;;;16.10;99.90;;;;;;5035329;28;20500;-76
2022/07/01 06:12:40;;;;;;;25.33;20.48;;;16.10;99.90;;;;;;5026893;28;20057;-77
2022/07/01 06:15:07;;;;;;;27.95;21.10;;;16.00;99.90;;;;;;5033676;28;20123;-77
2022/07/01 06:17:37;;;;;;;25.25;20.80;;;16.10;99.90;;;;;;5045633;28;20119;-76
2022/07/01 06:20:03;;;;;;;29.45;21.48;;;16.10;99.90;;;;;;5061443;28;20051;-77
2022/07/01 06:22:29;;;;;;;26.88;22.23;;;16.10;99.90;;;;;;5031495;28;20126;-77
2022/07/01 06:24:54;;;;;;;25.88;21.83;;;16.00;99.90;;;;;;5033915;28;20127;-73
2022/07/01 06:27:20;;;;;;;27.83;21.50;;;16.10;99.90;;;;;;5034294;28;20037;-73
2022/07/01 06:29:46;;;;;;;25.60;21.65;;;16.10;99.90;;;;;;5050637;28;20036;-77
2022/07/01 06:32:11;;;;;;;25.92;20.40;;;16.20;99.90;;;;;;5048696;28;20040;-78
2022/07/01 06:34:38;;;;;;;25.13;20.85;;;16.20;99.90;;;;;;5033062;28;20025;-78
2022/07/01 06:37:03;;;;;;;25.45;20.42;;;16.20;99.90;;;;;;5030174;28;20037;-78
2022/07/01 06:39:29;;;;;;;24.45;19.58;;;16.30;99.90;;;;;;5029181;28;20098;-78
2022/07/01 06:41:56;;;;;;;24.85;20.40;;;16.30;99.90;;;;;;5051220;28;20036;-79
2022/07/01 06:44:22;;;;;;;24.70;20.40;;;16.40;99.90;;;;;;5050499;28;20052;-79
2022/07/01 06:46:47;;;;;;;25.65;20.42;;;16.30;99.90;;;;;;5055199;28;20040;-79
2022/07/01 06:49:13;;;;;;;26.60;20.50;;;16.20;99.90;;;;;;5054718;28;20090;-79
2022/07/01 06:51:40;;;;;;;25.15;20.45;;;16.20;99.90;;;;;;5032163;28;20042;-79
2022/07/01 06:54:05;;;;;;;24.23;20.92;;;16.20;99.90;;;;;;5035386;28;20041;-79
2022/07/01 06:56:31;;;;;;;24.48;20.50;;;16.30;99.90;;;;;;5055161;28;20033;-79
2022/07/01 06:58:57;;;;;;;26.70;22.92;;;16.30;99.90;;;;;;5038513;28;20099;-79
2022/07/01 07:01:23;;;;;;;24.38;21.23;;;16.30;99.90;;;;;;5053099;28;20490;-79
2022/07/01 07:03:49;;;;;;;23.25;20.67;;;16.20;99.90;;;;;;5055192;28;20388;-78
2022/07/01 07:06:14;;;;;;;24.92;22.33;;;16.20;99.90;;;;;;5055067;28;20128;-78
2022/07/01 07:08:40;;;;;;;23.23;20.13;;;16.20;99.90;;;;;;5054780;28;20097;-78
2022/07/01 07:11:08;;;;;;;23.40;20.63;;;16.30;99.90;;;;;;5053869;28;20421;-77
2022/07/01 07:13:34;;;;;;;25.38;20.77;;;16.30;99.90;;;;;;5038316;28;20443;-78
2022/07/01 07:16:00;;;;;;;21.65;19.40;;;16.30;99.90;;;;;;5069814;28;20098;-79
2022/07/01 07:18:26;;;;;;;30.25;19.73;;;16.30;99.90;;;;;;5055101;28;20049;-79
2022/07/01 07:20:51;;;;;;;25.02;20.30;;;16.30;99.90;;;;;;5054450;28;20512;-79
2022/07/01 07:23:17;;;;;;;24.73;20.00;;;16.40;99.90;;;;;;5053507;28;20049;-79
2022/07/01 07:25:42;;;;;;;24.40;19.63;;;16.30;99.90;;;;;;5053596;28;20033;-78
2022/07/01 07:28:08;;;;;;;23.33;19.65;;;16.30;99.90;;;;;;5038798;28;20569;-79
2022/07/01 07:30:33;;;;;;;24.13;21.10;;;16.30;99.90;;;;;;5052372;28;20074;-78
2022/07/01 07:32:59;;;;;;;22.17;19.77;;;16.30;99.90;;;;;;5054402;28;20064;-78
2022/07/01 07:35:24;;;;;;;24.17;19.67;;;16.40;99.90;;;;;;5036922;28;20131;-79
2022/07/01 07:37:50;;;;;;;22.58;20.10;;;16.40;99.90;;;;;;5053815;28;20037;-79
2022/07/01 07:40:18;;;;;;;22.60;19.23;;;16.40;99.90;;;;;;5071205;28;20102;-79
2022/07/01 07:42:45;;;;;;;24.23;21.30;;;16.30;99.90;;;;;;5051890;28;20382;-79
2022/07/01 07:45:11;;;;;;;24.48;19.70;;;16.30;99.90;;;;;;5054635;28;20099;-79
2022/07/01 07:47:37;;;;;;;21.38;19.05;;;16.30;99.90;;;;;;5053282;28;20464;-78
2022/07/01 07:50:04;;;;;;;20.85;18.63;;;16.50;99.90;;;;;;5036444;28;20041;-78
2022/07/01 07:52:30;;;;;;;23.88;19.83;;;16.40;99.90;;;;;;5054386;28;20182;-79
2022/07/01 07:54:56;;;;;;;21.35;17.95;;;16.40;99.90;;;;;;5053044;28;20503;-76
2022/07/01 07:57:21;;;;;;;20.52;17.75;;;16.60;99.90;;;;;;5051282;28;20409;-75
2022/07/01 07:59:47;;;;;;;19.98;17.58;;;16.80;99.90;;;;;;5036983;28;20394;-79
2022/07/01 08:02:13;;;;;;;21.48;19.17;;;16.70;99.90;;;;;;5033644;28;20040;-79
2022/07/01 08:04:38;;;;;;;21.58;17.85;;;16.90;99.90;;;;;;5050797;28;20025;-79
2022/07/01 08:07:04;;;;;;;21.95;18.05;;;17.00;99.90;;;;;;5037171;28;20492;-79
2022/07/01 08:09:31;;;;;;;19.73;16.98;;;17.10;99.90;;;;;;5036441;28;20083;-79
2022/07/01 08:11:57;;;;;;;19.95;17.17;;;17.10;99.90;;;;;;5054180;28;20061;-79
2022/07/01 08:14:23;;;;;;;19.60;15.50;;;17.10;99.90;;;;;;5067394;28;20056;-79
2022/07/01 08:16:48;;;;;;;18.05;16.10;;;17.20;99.90;;;;;;5031848;28;20170;-79
2022/07/01 08:19:14;;;;;;;21.38;16.33;;;17.20;99.90;;;;;;5036066;28;20516;-79
2022/07/01 08:21:40;;;;;;;21.42;17.67;;;17.30;99.90;;;;;;5051853;28;20029;-79
2022/07/01 08:24:05;;;;;;;18.88;15.18;;;17.40;99.90;;;;;;5049267;28;20094;-79
2022/07/01 08:26:31;;;;;;;16.90;15.10;;;17.50;99.90;;;;;;5034127;28;20037;-80
2022/07/01 08:28:57;;;;;;;18.35;13.93;;;17.50;99.90;;;;;;5027998;28;20045;-79
2022/07/01 08:31:22;;;;;;;17.08;15.27;;;17.70;99.90;;;;;;5051400;28;20452;-79
2022/07/01 08:33:48;;;;;;;17.27;14.38;;;17.70;99.90;;;;;;5034812;28;20064;-80
2022/07/01 08:36:13;;;;;;;18.15;14.07;;;17.60;99.90;;;;;;5051680;28;20044;-80
2022/07/01 08:38:39;;;;;;;15.10;13.55;;;17.70;99.90;;;;;;5052174;28;20084;-80
2022/07/01 08:41:05;;;;;;;14.77;13.27;;;17.50;99.90;;;;;;5051255;28;20036;-80
2022/07/01 08:43:31;;;;;;;15.88;12.60;;;17.60;99.90;;;;;;5050599;28;20110;-80
2022/07/01 08:46:01;;;;;;;15.10;11.52;;;17.60;99.90;;;;;;5036155;28;20040;-80
2022/07/01 08:48:30;;;;;;;14.13;11.80;;;17.70;99.90;;;;;;5042650;28;20045;-80
2022/07/01 08:50:55;;;;;;;16.38;12.25;;;17.90;99.90;;;;;;5052617;28;20037;-80
2022/07/01 08:53:21;;;;;;;14.88;12.15;;;18.00;99.90;;;;;;5047844;28;20044;-80
2022/07/01 08:58:31;;;;;;;13.00;10.30;;;18.40;99.90;;;;;;5045236;28;20033;-80
2022/07/01 09:01:21;;;;;;;17.30;10.82;;;18.50;99.90;;;;;;5065473;28;20053;-80
2022/07/01 09:03:47;;;;;;;13.98;9.90;;;18.60;99.90;;;;;;5043462;28;20116;-81
2022/07/01 09:06:26;;;;;;;13.52;9.27;;;18.60;99.90;;;;;;5050861;28;20501;-80
2022/07/01 09:08:52;;;;;;;12.32;8.77;;;18.70;99.90;;;;;;5051565;28;20045;-80
2022/07/01 09:11:23;;;;;;;12.20;9.43;;;18.80;99.90;;;;;;5052128;28;20497;-81
2022/07/01 09:14:09;;;;;;;11.70;8.80;;;18.80;99.90;;;;;;5043245;28;20072;-81
2022/07/01 09:16:43;;;;;;;12.93;9.18;;;18.70;99.90;;;;;;5021642;28;20026;-81
2022/07/01 09:19:09;;;;;;;14.45;9.52;;;18.80;99.90;;;;;;5050191;28;20043;-81
2022/07/01 09:21:35;;;;;;;16.35;11.30;;;18.90;99.90;;;;;;5052895;28;20037;-81
2022/07/01 09:24:22;;;;;;;12.07;9.55;;;18.90;99.90;;;;;;5061505;28;20032;-81
2022/07/01 09:26:52;;;;;;;12.70;9.10;;;18.80;99.90;;;;;;5013937;28;20055;-81
2022/07/01 09:29:18;;;;;;;13.57;9.55;;;18.90;99.90;;;;;;5019504;28;20424;-81
2022/07/01 09:31:49;;;;;;;13.32;9.00;;;18.90;99.90;;;;;;5032079;28;20116;-81
2022/07/01 09:34:15;;;;;;;12.43;8.40;;;18.90;99.90;;;;;;5038439;28;20041;-81
2022/07/01 09:36:50;;;;;;;11.63;8.80;;;18.90;99.90;;;;;;5051951;28;20511;-82
2022/07/01 09:39:16;;;;;;;12.88;8.73;;;19.00;99.90;;;;;;5051480;28;20087;-82
2022/07/01 09:41:41;;;;;;;16.40;9.88;;;18.80;99.90;;;;;;5046997;28;20498;-82
2022/07/01 09:44:08;;;;;;;14.27;8.95;;;18.80;99.90;;;;;;5033373;28;20071;-82
2022/07/01 09:46:34;;;;;;;14.38;8.07;;;18.80;99.90;;;;;;5043246;28;20084;-82
2022/07/01 09:49:00;;;;;;;11.43;7.57;;;18.80;99.90;;;;;;5065537;28;20048;-82
2022/07/01 09:51:26;;;;;;;12.32;7.57;;;18.80;99.90;;;;;;5050840;28;20493;-82
2022/07/01 09:53:51;;;;;;;12.05;6.55;;;18.80;99.90;;;;;;5047863;28;20040;-82
2022/07/01 09:56:19;;;;;;;10.88;6.75;;;18.80;99.90;;;;;;5047878;28;20045;-83
2022/07/01 09:58:44;;;;;;;13.93;6.00;;;18.70;99.90;;;;;;5045380;28;20075;-82
2022/07/01 10:01:12;;;;;;;11.38;6.63;;;18.60;99.90;;;;;;5050845;28;20485;-82
2022/07/01 10:03:39;;;;;;;10.48;6.70;;;18.80;99.90;;;;;;5051924;28;20044;-83
2022/07/01 10:06:40;;;;;;;9.52;7.18;;;18.90;99.90;;;;;;5050649;28;20045;-83
2022/07/01 10:09:31;;;;;;;10.85;7.78;;;18.90;99.90;;;;;;5015968;28;20045;-83
2022/07/01 10:12:15;;;;;;;11.93;6.53;;;18.80;99.90;;;;;;5022069;28;20414;-83
2022/07/01 10:14:43;;;;;;;11.30;7.35;;;18.80;99.90;;;;;;5046557;28;20544;-82
2022/07/01 10:17:08;;;;;;;13.52;7.78;;;18.90;99.90;;;;;;5042609;28;20449;-83
2022/07/01 10:19:34;;;;;;;11.88;8.07;;;19.00;99.90;;;;;;5045115;28;20056;-83
2022/07/01 10:22:21;;;;;;;12.40;7.85;;;19.10;99.90;;;;;;5050789;28;20123;-83
2022/07/01 10:24:46;;;;;;;11.27;8.63;;;19.20;99.90;;;;;;5051388;28;20041;-84
2022/07/01 10:27:21;;;;;;;15.70;8.48;;;19.30;99.90;;;;;;5038492;28;20402;-83
2022/07/01 10:29:47;;;;;;;10.15;8.02;;;19.30;99.90;;;;;;5037393;28;20049;-83
2022/07/01 10:32:22;;;;;;;12.90;7.97;;;19.40;99.90;;;;;;5050509;28;20073;-83
2022/07/01 10:34:48;;;;;;;12.38;6.75;;;19.40;99.90;;;;;;5035200;28;20432;-84
2022/07/01 10:37:17;;;;;;;9.70;6.43;;;19.30;99.90;;;;;;5033088;28;20060;-83
2022/07/01 10:39:58;;;;;;;10.27;5.50;;;19.40;99.90;;;;;;5027548;28;20037;-83
2022/07/01 10:42:31;;;;;;;11.23;5.70;;;19.40;99.90;;;;;;5043348;28;20127;-84
2022/07/01 10:45:09;;;;;;;9.95;5.20;;;19.50;99.90;;;;;;5061218;28;20036;-84
2022/07/01 10:47:35;;;;;;;8.43;4.20;;;19.70;99.90;;;;;;5047856;28;20037;-83
2022/07/01 10:50:10;;;;;;;9.40;4.30;;;19.80;99.90;;;;;;5049514;28;20385;-83
2022/07/01 10:52:36;;;;;;;9.23;4.20;;;19.80;99.90;;;;;;5048298;28;20037;-84
2022/07/01 10:55:04;;;;;;;8.45;3.95;;;19.70;99.90;;;;;;5041531;28;20432;-84
2022/07/01 10:57:34;;;;;;;7.95;4.65;;;19.80;99.90;;;;;;5049380;28;20041;-84
2022/07/01 10:59:59;;;;;;;10.07;4.90;;;19.80;99.90;;;;;;5049112;28;20033;-83
2022/07/01 11:02:36;;;;;;;9.70;5.05;;;19.80;99.90;;;;;;5029576;28;20107;-84
2022/07/01 11:05:09;;;;;;;8.35;4.30;;;19.70;99.90;;;;;;5030195;28;20540;-84
2022/07/01 11:07:37;;;;;;;8.70;4.15;;;19.50;99.90;;;;;;5050789;28;20025;-85
2022/07/01 11:10:06;;;;;;;8.38;4.60;;;19.40;99.90;;;;;;5035078;28;20045;-84
2022/07/01 11:12:32;;;;;;;9.93;5.15;;;19.40;99.90;;;;;;5030072;28;20056;-84
2022/07/01 11:14:59;;;;;;;7.93;4.82;;;19.50;99.90;;;;;;5046997;28;20045;-84
2022/07/01 11:17:25;;;;;;;8.20;4.30;;;19.70;99.90;;;;;;5049867;28;20036;-84
2022/07/01 11:19:58;;;;;;;8.45;4.40;;;19.90;99.90;;;;;;5057742;28;20040;-84
2022/07/01 11:22:26;;;;;;;6.95;3.80;;;20.00;99.90;;;;;;5043916;28;20033;-83
2022/07/01 11:24:53;;;;;;;7.22;4.32;;;20.20;99.90;;;;;;5040252;28;20073;-85
2022/07/01 11:27:19;;;;;;;7.20;3.70;;;20.20;99.90;;;;;;5050171;28;20044;-84
2022/07/01 11:29:44;;;;;;;6.50;3.78;;;20.10;99.90;;;;;;5049770;28;20037;-85
2022/07/01 11:32:10;;;;;;;6.38;3.42;;;20.10;99.90;;;;;;5049251;28;20029;-85
2022/07/01 11:34:37;;;;;;;8.02;3.90;;;20.00;99.90;;;;;;5035119;28;20028;-84
2022/07/01 11:40:12;;;;;;;8.00;3.53;;;19.80;99.90;;;;;;5044813;28;20401;-85
2022/07/01 11:42:38;;;;;;;6.05;3.03;;;19.90;99.90;;;;;;5057768;28;20402;-85
2022/07/01 11:45:04;;;;;;;7.30;3.30;;;20.10;99.90;;;;;;5024046;28;20041;-85
2022/07/01 11:47:30;;;;;;;8.88;3.22;;;20.20;99.90;;;;;;5054323;28;20037;-85
2022/07/01 11:49:56;;;;;;;7.30;2.97;;;20.30;99.90;;;;;;5052476;28;20512;-86
2022/07/01 11:52:23;;;;;;;6.75;2.30;;;19.90;99.90;;;;;;5053717;28;20037;-85
2022/07/01 11:54:50;;;;;;;5.00;1.42;;;19.80;99.90;;;;;;5051569;28;20037;-85
2022/07/01 11:57:18;;;;;;;7.25;1.60;;;19.60;99.90;;;;;;5052009;28;20044;-85
2022/07/01 11:59:45;;;;;;;7.47;2.45;;;19.50;99.90;;;;;;5055000;28;20044;-85
2022/07/01 12:02:14;;;;;;;7.10;1.90;;;19.40;99.90;;;;;;5019259;28;20033;-85
2022/07/01 12:04:40;;;;;;;6.00;1.80;;;19.20;99.90;;;;;;5044123;28;20513;-85
2022/07/01 12:07:07;;;;;;;6.32;1.77;;;19.20;99.90;;;;;;5052160;28;20072;-84
2022/07/01 12:09:33;;;;;;;7.63;1.80;;;19.20;99.90;;;;;;5037730;28;20386;-84
2022/07/01 12:11:59;;;;;;;6.55;1.60;;;19.10;99.90;;;;;;5029017;28;20053;-84
2022/07/01 12:14:30;;;;;;;7.05;1.40;;;19.40;99.90;;;;;;5050598;28;20401;-84
2022/07/01 12:17:02;;;;;;;5.65;1.50;;;19.30;99.90;;;;;;5054157;28;20028;-83
2022/07/01 12:19:29;;;;;;;;;;;19.50;99.90;;;;;;5052382;28;20517;-84
2022/07/01 12:21:58;;;;;;;3.45;1.00;;;19.80;99.90;;;;;;5052752;28;20395;-85
2022/07/01 12:24:24;;;;;;;7.05;1.17;;;19.90;99.90;;;;;;5036174;28;20036;-85
2022/07/01 12:26:58;;;;;;;4.78;1.42;;;20.10;99.90;;;;;;5044443;28;20053;-85
2022/07/01 12:29:27;;;;;;;4.30;1.00;;;20.20;99.90;;;;;;5020317;28;20127;-85
2022/07/01 12:32:00;;;;;;;2.80;1.02;;;20.40;99.90;;;;;;5037199;28;20037;-85
2022/07/01 12:34:47;;;;;;;3.88;1.35;;;20.20;99.90;;;;;;5039371;28;20087;-86
2022/07/01 12:37:33;;;;;;;4.68;1.10;;;20.20;99.90;;;;;;5052919;28;20041;-85
2022/07/01 12:40:04;;;;;;;4.25;1.00;;;20.30;99.90;;;;;;5052379;28;20039;-84
2022/07/01 12:42:38;;;;;;;2.22;0.80;;;20.50;99.90;;;;;;5053582;28;20041;-85
2022/07/01 12:45:06;;;;;;;3.53;0.90;;;20.40;99.90;;;;;;5053862;28;20489;-85
2022/07/01 12:47:36;;;;;;;5.28;0.93;;;20.20;99.90;;;;;;5053065;28;20044;-86
2022/07/01 12:50:23;;;;;;;4.95;1.30;;;20.10;99.90;;;;;;5053315;28;20072;-84
2022/07/01 12:53:05;;;;;;;4.45;1.00;;;20.10;99.90;;;;;;5043339;28;20049;-86
2022/07/01 12:55:32;;;;;;;3.30;0.80;;;20.20;99.90;;;;;;5052814;28;20041;-76